sensor_id;sensor_type;location;lat;lon;timestamp;P1;durP1;ratioP1;P2;durP2;ratioP2
23470;SDS011;11908;50.806;4.424;2023-05-10T00:00:32;15.07;;;8.98;;
23470;SDS011;11908;50.806;4.424;2023-05-10T00:02:58;16.98;;;9.65;;
23470;SDS011;11908;50.806;4.424;2023-05-10T00:05:23;19.50;;;9.68;;
23470;SDS011;11908;50.806;4.424;2023-05-10T00:07:49;14.63;;;9.05;;
23470;SDS011;11908;50.806;4.424;2023-05-10T00:10:15;15.05;;;9.98;;
23470;SDS011;11908;50.806;4.424;2023-05-10T00:12:41;19.83;;;9.50;;
23470;SDS011;11908;50.806;4.424;2023-05-10T00:15:07;18.63;;;9.13;;
23470;SDS011;11908;50.806;4.424;2023-05-10T00:17:33;21.25;;;9.90;;
23470;SDS011;11908;50.806;4.424;2023-05-10T00:19:59;20.45;;;10.27;;
23470;SDS011;11908;50.806;4.424;2023-05-10T00:22:25;18.52;;;10.40;;
23470;SDS011;11908;50.806;4.424;2023-05-10T00:24:51;18.33;;;9.23;;
23470;SDS011;11908;50.806;4.424;2023-05-10T00:27:16;20.45;;;9.13;;
23470;SDS011;11908;50.806;4.424;2023-05-10T00:29:42;17.70;;;9.15;;
23470;SDS011;11908;50.806;4.424;2023-05-10T00:32:07;18.83;;;9.65;;
23470;SDS011;11908;50.806;4.424;2023-05-10T00:34:33;20.35;;;9.70;;
23470;SDS011;11908;50.806;4.424;2023-05-10T00:36:59;20.05;;;9.07;;
23470;SDS011;11908;50.806;4.424;2023-05-10T00:39:25;17.05;;;9.52;;
23470;SDS011;11908;50.806;4.424;2023-05-10T00:41:51;14.27;;;9.27;;
23470;SDS011;11908;50.806;4.424;2023-05-10T00:44:17;13.80;;;8.30;;
23470;SDS011;11908;50.806;4.424;2023-05-10T00:46:43;14.15;;;9.00;;
23470;SDS011;11908;50.806;4.424;2023-05-10T00:49:09;21.75;;;10.10;;
23470;SDS011;11908;50.806;4.424;2023-05-10T00:51:36;20.10;;;9.63;;
23470;SDS011;11908;50.806;4.424;2023-05-10T00:54:02;21.02;;;10.73;;
23470;SDS011;11908;50.806;4.424;2023-05-10T00:56:27;17.60;;;11.18;;
23470;SDS011;11908;50.806;4.424;2023-05-10T00:58:54;16.27;;;10.73;;
23470;SDS011;11908;50.806;4.424;2023-05-10T01:01:21;17.08;;;11.07;;
23470;SDS011;11908;50.806;4.424;2023-05-10T01:03:47;16.75;;;10.75;;
23470;SDS011;11908;50.806;4.424;2023-05-10T01:06:13;19.88;;;10.93;;
23470;SDS011;11908;50.806;4.424;2023-05-10T01:08:39;21.52;;;11.43;;
23470;SDS011;11908;50.806;4.424;2023-05-10T01:11:05;20.83;;;11.18;;
23470;SDS011;11908;50.806;4.424;2023-05-10T01:16:03;18.60;;;10.88;;
23470;SDS011;11908;50.806;4.424;2023-05-10T01:18:30;17.00;;;10.43;;
23470;SDS011;11908;50.806;4.424;2023-05-10T01:21:14;20.55;;;12.10;;
23470;SDS011;11908;50.806;4.424;2023-05-10T01:24:03;19.98;;;11.00;;
23470;SDS011;11908;50.806;4.424;2023-05-10T01:29:24;20.25;;;11.18;;
23470;SDS011;11908;50.806;4.424;2023-05-10T01:34:34;17.73;;;11.55;;
23470;SDS011;11908;50.806;4.424;2023-05-10T01:39:44;20.95;;;11.80;;
23470;SDS011;11908;50.806;4.424;2023-05-10T01:42:16;19.30;;;11.18;;
23470;SDS011;11908;50.806;4.424;2023-05-10T01:44:49;19.45;;;12.43;;
23470;SDS011;11908;50.806;4.424;2023-05-10T01:50:18;25.83;;;12.13;;
23470;SDS011;11908;50.806;4.424;2023-05-10T01:52:49;24.75;;;13.35;;
23470;SDS011;11908;50.806;4.424;2023-05-10T01:55:20;20.83;;;13.55;;
23470;SDS011;11908;50.806;4.424;2023-05-10T01:57:47;23.95;;;13.52;;
23470;SDS011;11908;50.806;4.424;2023-05-10T02:00:20;19.75;;;13.45;;
23470;SDS011;11908;50.806;4.424;2023-05-10T02:02:47;23.20;;;13.68;;
23470;SDS011;11908;50.806;4.424;2023-05-10T02:05:15;20.42;;;13.63;;
23470;SDS011;11908;50.806;4.424;2023-05-10T02:07:42;24.60;;;14.23;;
23470;SDS011;11908;50.806;4.424;2023-05-10T02:10:09;24.70;;;14.40;;
23470;SDS011;11908;50.806;4.424;2023-05-10T02:12:36;21.77;;;13.70;;
23470;SDS011;11908;50.806;4.424;2023-05-10T02:15:04;24.73;;;13.82;;
23470;SDS011;11908;50.806;4.424;2023-05-10T02:17:32;25.58;;;13.50;;
23470;SDS011;11908;50.806;4.424;2023-05-10T02:19:59;24.48;;;13.02;;
23470;SDS011;11908;50.806;4.424;2023-05-10T02:22:26;20.70;;;13.68;;
23470;SDS011;11908;50.806;4.424;2023-05-10T02:24:53;19.92;;;12.73;;
23470;SDS011;11908;50.806;4.424;2023-05-10T02:27:22;19.33;;;13.27;;
23470;SDS011;11908;50.806;4.424;2023-05-10T02:29:49;28.67;;;13.30;;
23470;SDS011;11908;50.806;4.424;2023-05-10T02:32:15;21.30;;;12.93;;
23470;SDS011;11908;50.806;4.424;2023-05-10T02:34:42;19.23;;;12.07;;
23470;SDS011;11908;50.806;4.424;2023-05-10T02:37:10;24.38;;;12.43;;
23470;SDS011;11908;50.806;4.424;2023-05-10T02:39:38;19.67;;;12.40;;
23470;SDS011;11908;50.806;4.424;2023-05-10T02:42:08;18.83;;;12.18;;
23470;SDS011;11908;50.806;4.424;2023-05-10T02:44:40;19.98;;;11.95;;
23470;SDS011;11908;50.806;4.424;2023-05-10T02:47:08;20.05;;;12.63;;
23470;SDS011;11908;50.806;4.424;2023-05-10T02:49:33;22.13;;;11.55;;
23470;SDS011;11908;50.806;4.424;2023-05-10T02:52:00;18.42;;;11.57;;
23470;SDS011;11908;50.806;4.424;2023-05-10T02:54:30;19.80;;;11.73;;
23470;SDS011;11908;50.806;4.424;2023-05-10T02:56:58;21.73;;;11.70;;
23470;SDS011;11908;50.806;4.424;2023-05-10T02:59:27;19.50;;;12.82;;
23470;SDS011;11908;50.806;4.424;2023-05-10T03:01:53;19.88;;;12.50;;
23470;SDS011;11908;50.806;4.424;2023-05-10T03:04:19;19.73;;;11.55;;
23470;SDS011;11908;50.806;4.424;2023-05-10T03:06:45;18.13;;;11.50;;
23470;SDS011;11908;50.806;4.424;2023-05-10T03:09:11;24.15;;;12.55;;
23470;SDS011;11908;50.806;4.424;2023-05-10T03:11:56;20.38;;;12.25;;
23470;SDS011;11908;50.806;4.424;2023-05-10T03:17:11;19.48;;;12.15;;
23470;SDS011;11908;50.806;4.424;2023-05-10T03:19:58;26.20;;;13.77;;
23470;SDS011;11908;50.806;4.424;2023-05-10T03:22:34;27.20;;;13.63;;
23470;SDS011;11908;50.806;4.424;2023-05-10T03:25:11;26.02;;;15.35;;
23470;SDS011;11908;50.806;4.424;2023-05-10T03:27:40;22.48;;;14.15;;
23470;SDS011;11908;50.806;4.424;2023-05-10T03:30:08;27.77;;;16.05;;
23470;SDS011;11908;50.806;4.424;2023-05-10T03:32:36;24.55;;;14.57;;
23470;SDS011;11908;50.806;4.424;2023-05-10T03:35:09;24.60;;;15.57;;
23470;SDS011;11908;50.806;4.424;2023-05-10T03:37:37;27.15;;;16.55;;
23470;SDS011;11908;50.806;4.424;2023-05-10T03:40:02;29.92;;;17.08;;
23470;SDS011;11908;50.806;4.424;2023-05-10T03:42:28;27.02;;;15.85;;
23470;SDS011;11908;50.806;4.424;2023-05-10T03:44:54;28.08;;;15.52;;
23470;SDS011;11908;50.806;4.424;2023-05-10T03:47:20;31.52;;;16.58;;
23470;SDS011;11908;50.806;4.424;2023-05-10T03:49:46;30.55;;;16.40;;
23470;SDS011;11908;50.806;4.424;2023-05-10T03:52:11;26.35;;;16.27;;
23470;SDS011;11908;50.806;4.424;2023-05-10T03:54:37;26.52;;;15.50;;
23470;SDS011;11908;50.806;4.424;2023-05-10T03:57:03;28.63;;;16.67;;
23470;SDS011;11908;50.806;4.424;2023-05-10T03:59:29;26.17;;;14.95;;
23470;SDS011;11908;50.806;4.424;2023-05-10T04:01:55;27.98;;;15.07;;
23470;SDS011;11908;50.806;4.424;2023-05-10T04:04:21;26.15;;;15.55;;
23470;SDS011;11908;50.806;4.424;2023-05-10T04:06:47;28.33;;;16.20;;
23470;SDS011;11908;50.806;4.424;2023-05-10T04:09:12;31.88;;;16.90;;
23470;SDS011;11908;50.806;4.424;2023-05-10T04:11:38;26.65;;;15.45;;
23470;SDS011;11908;50.806;4.424;2023-05-10T04:14:04;24.30;;;15.65;;
23470;SDS011;11908;50.806;4.424;2023-05-10T04:16:29;33.08;;;16.67;;
23470;SDS011;11908;50.806;4.424;2023-05-10T04:18:55;28.02;;;16.13;;
23470;SDS011;11908;50.806;4.424;2023-05-10T04:21:21;34.67;;;17.45;;
23470;SDS011;11908;50.806;4.424;2023-05-10T04:23:47;29.77;;;16.08;;
23470;SDS011;11908;50.806;4.424;2023-05-10T04:26:13;32.80;;;16.65;;
23470;SDS011;11908;50.806;4.424;2023-05-10T04:28:38;31.95;;;17.27;;
23470;SDS011;11908;50.806;4.424;2023-05-10T04:31:09;31.95;;;17.38;;
23470;SDS011;11908;50.806;4.424;2023-05-10T04:33:35;33.60;;;18.40;;
23470;SDS011;11908;50.806;4.424;2023-05-10T04:36:02;33.95;;;17.65;;
23470;SDS011;11908;50.806;4.424;2023-05-10T04:38:29;27.55;;;16.55;;
23470;SDS011;11908;50.806;4.424;2023-05-10T04:40:55;25.10;;;15.93;;
23470;SDS011;11908;50.806;4.424;2023-05-10T04:43:32;28.63;;;16.40;;
23470;SDS011;11908;50.806;4.424;2023-05-10T04:45:58;27.92;;;15.70;;
23470;SDS011;11908;50.806;4.424;2023-05-10T04:48:23;25.35;;;14.95;;
23470;SDS011;11908;50.806;4.424;2023-05-10T04:50:49;20.08;;;11.48;;
23470;SDS011;11908;50.806;4.424;2023-05-10T04:53:15;17.23;;;10.38;;
23470;SDS011;11908;50.806;4.424;2023-05-10T04:55:41;18.63;;;9.38;;
23470;SDS011;11908;50.806;4.424;2023-05-10T04:58:07;11.32;;;8.48;;
23470;SDS011;11908;50.806;4.424;2023-05-10T05:00:32;13.80;;;8.07;;
23470;SDS011;11908;50.806;4.424;2023-05-10T05:02:58;12.68;;;8.05;;
23470;SDS011;11908;50.806;4.424;2023-05-10T05:05:24;12.38;;;7.13;;
23470;SDS011;11908;50.806;4.424;2023-05-10T05:07:50;12.70;;;8.20;;
23470;SDS011;11908;50.806;4.424;2023-05-10T05:10:15;12.52;;;7.38;;
23470;SDS011;11908;50.806;4.424;2023-05-10T05:12:41;10.07;;;6.97;;
23470;SDS011;11908;50.806;4.424;2023-05-10T05:15:07;11.52;;;7.43;;
23470;SDS011;11908;50.806;4.424;2023-05-10T05:17:36;12.77;;;7.47;;
23470;SDS011;11908;50.806;4.424;2023-05-10T05:20:02;11.95;;;7.57;;
23470;SDS011;11908;50.806;4.424;2023-05-10T05:22:28;11.45;;;8.40;;
23470;SDS011;11908;50.806;4.424;2023-05-10T05:24:54;12.50;;;8.38;;
23470;SDS011;11908;50.806;4.424;2023-05-10T05:27:20;12.85;;;9.07;;
23470;SDS011;11908;50.806;4.424;2023-05-10T05:29:49;14.02;;;9.35;;
23470;SDS011;11908;50.806;4.424;2023-05-10T05:32:15;11.90;;;9.30;;
23470;SDS011;11908;50.806;4.424;2023-05-10T05:34:41;17.25;;;9.32;;
23470;SDS011;11908;50.806;4.424;2023-05-10T05:37:06;15.05;;;9.43;;
23470;SDS011;11908;50.806;4.424;2023-05-10T05:39:32;15.27;;;8.90;;
23470;SDS011;11908;50.806;4.424;2023-05-10T05:41:58;12.90;;;10.20;;
23470;SDS011;11908;50.806;4.424;2023-05-10T05:44:23;12.98;;;9.13;;
23470;SDS011;11908;50.806;4.424;2023-05-10T05:46:49;13.10;;;7.95;;
23470;SDS011;11908;50.806;4.424;2023-05-10T05:49:15;9.25;;;6.60;;
23470;SDS011;11908;50.806;4.424;2023-05-10T05:51:40;9.13;;;7.18;;
23470;SDS011;11908;50.806;4.424;2023-05-10T05:54:06;12.32;;;6.93;;
23470;SDS011;11908;50.806;4.424;2023-05-10T05:56:32;11.68;;;6.82;;
23470;SDS011;11908;50.806;4.424;2023-05-10T05:58:58;10.75;;;6.25;;
23470;SDS011;11908;50.806;4.424;2023-05-10T06:01:23;7.57;;;5.43;;
23470;SDS011;11908;50.806;4.424;2023-05-10T06:03:49;8.70;;;5.45;;
23470;SDS011;11908;50.806;4.424;2023-05-10T06:06:15;8.10;;;5.05;;
23470;SDS011;11908;50.806;4.424;2023-05-10T06:08:40;7.03;;;4.93;;
23470;SDS011;11908;50.806;4.424;2023-05-10T06:11:06;7.30;;;4.65;;
23470;SDS011;11908;50.806;4.424;2023-05-10T06:13:32;9.98;;;5.03;;
23470;SDS011;11908;50.806;4.424;2023-05-10T06:15:58;9.57;;;5.63;;
23470;SDS011;11908;50.806;4.424;2023-05-10T06:18:24;12.20;;;5.53;;
23470;SDS011;11908;50.806;4.424;2023-05-10T06:20:50;10.05;;;5.72;;
23470;SDS011;11908;50.806;4.424;2023-05-10T06:23:16;12.65;;;5.32;;
23470;SDS011;11908;50.806;4.424;2023-05-10T06:25:42;15.82;;;5.75;;
23470;SDS011;11908;50.806;4.424;2023-05-10T06:28:08;8.73;;;5.97;;
23470;SDS011;11908;50.806;4.424;2023-05-10T06:30:35;10.68;;;5.95;;
23470;SDS011;11908;50.806;4.424;2023-05-10T06:33:01;9.55;;;5.25;;
23470;SDS011;11908;50.806;4.424;2023-05-10T06:35:27;10.40;;;5.78;;
23470;SDS011;11908;50.806;4.424;2023-05-10T06:37:53;9.85;;;5.82;;
23470;SDS011;11908;50.806;4.424;2023-05-10T06:40:19;8.23;;;5.60;;
23470;SDS011;11908;50.806;4.424;2023-05-10T06:42:46;7.93;;;5.30;;
23470;SDS011;11908;50.806;4.424;2023-05-10T06:45:12;6.22;;;4.78;;
23470;SDS011;11908;50.806;4.424;2023-05-10T06:47:39;9.73;;;5.05;;
23470;SDS011;11908;50.806;4.424;2023-05-10T06:50:06;7.70;;;4.80;;
23470;SDS011;11908;50.806;4.424;2023-05-10T06:52:32;5.82;;;3.95;;
23470;SDS011;11908;50.806;4.424;2023-05-10T06:54:58;10.15;;;4.28;;
23470;SDS011;11908;50.806;4.424;2023-05-10T06:57:24;2.92;;;2.67;;
23470;SDS011;11908;50.806;4.424;2023-05-10T06:59:49;2.97;;;2.67;;
23470;SDS011;11908;50.806;4.424;2023-05-10T07:02:16;3.42;;;2.83;;
23470;SDS011;11908;50.806;4.424;2023-05-10T07:04:42;5.22;;;3.20;;
23470;SDS011;11908;50.806;4.424;2023-05-10T07:07:07;5.70;;;3.40;;
23470;SDS011;11908;50.806;4.424;2023-05-10T07:09:33;7.15;;;4.43;;
23470;SDS011;11908;50.806;4.424;2023-05-10T07:11:59;4.00;;;3.60;;
23470;SDS011;11908;50.806;4.424;2023-05-10T07:14:26;6.90;;;4.28;;
23470;SDS011;11908;50.806;4.424;2023-05-10T07:16:52;5.68;;;4.13;;
23470;SDS011;11908;50.806;4.424;2023-05-10T07:19:18;10.20;;;5.22;;
23470;SDS011;11908;50.806;4.424;2023-05-10T07:21:44;10.15;;;5.38;;
23470;SDS011;11908;50.806;4.424;2023-05-10T07:24:10;9.30;;;4.97;;
23470;SDS011;11908;50.806;4.424;2023-05-10T07:26:36;9.15;;;5.53;;
23470;SDS011;11908;50.806;4.424;2023-05-10T07:29:02;7.38;;;5.57;;
23470;SDS011;11908;50.806;4.424;2023-05-10T07:31:27;10.32;;;5.63;;
23470;SDS011;11908;50.806;4.424;2023-05-10T07:33:53;8.25;;;5.47;;
23470;SDS011;11908;50.806;4.424;2023-05-10T07:36:19;11.23;;;6.82;;
23470;SDS011;11908;50.806;4.424;2023-05-10T07:38:45;12.50;;;6.85;;
23470;SDS011;11908;50.806;4.424;2023-05-10T07:41:11;8.82;;;6.47;;
23470;SDS011;11908;50.806;4.424;2023-05-10T07:43:37;10.63;;;6.60;;
23470;SDS011;11908;50.806;4.424;2023-05-10T07:46:03;13.35;;;6.93;;
23470;SDS011;11908;50.806;4.424;2023-05-10T07:48:29;10.50;;;7.05;;
23470;SDS011;11908;50.806;4.424;2023-05-10T07:50:54;10.45;;;7.53;;
23470;SDS011;11908;50.806;4.424;2023-05-10T07:53:20;10.85;;;6.63;;
23470;SDS011;11908;50.806;4.424;2023-05-10T07:55:53;13.68;;;6.47;;
23470;SDS011;11908;50.806;4.424;2023-05-10T07:58:22;9.40;;;6.80;;
23470;SDS011;11908;50.806;4.424;2023-05-10T08:00:49;10.75;;;6.07;;
23470;SDS011;11908;50.806;4.424;2023-05-10T08:03:15;10.05;;;6.53;;
23470;SDS011;11908;50.806;4.424;2023-05-10T08:05:41;9.05;;;6.20;;
23470;SDS011;11908;50.806;4.424;2023-05-10T08:08:06;8.63;;;5.40;;
23470;SDS011;11908;50.806;4.424;2023-05-10T08:10:32;9.32;;;5.28;;
23470;SDS011;11908;50.806;4.424;2023-05-10T08:12:58;10.63;;;5.47;;
23470;SDS011;11908;50.806;4.424;2023-05-10T08:15:24;9.52;;;4.78;;
23470;SDS011;11908;50.806;4.424;2023-05-10T08:17:51;7.20;;;5.25;;
23470;SDS011;11908;50.806;4.424;2023-05-10T08:20:16;7.78;;;4.43;;
23470;SDS011;11908;50.806;4.424;2023-05-10T08:22:44;7.20;;;4.25;;
23470;SDS011;11908;50.806;4.424;2023-05-10T08:25:10;8.30;;;4.95;;
23470;SDS011;11908;50.806;4.424;2023-05-10T08:27:36;6.47;;;4.28;;
23470;SDS011;11908;50.806;4.424;2023-05-10T08:30:01;10.60;;;6.65;;
23470;SDS011;11908;50.806;4.424;2023-05-10T08:32:27;5.85;;;3.63;;
23470;SDS011;11908;50.806;4.424;2023-05-10T08:34:53;6.47;;;4.20;;
23470;SDS011;11908;50.806;4.424;2023-05-10T08:37:19;6.47;;;4.25;;
23470;SDS011;11908;50.806;4.424;2023-05-10T08:39:45;6.78;;;4.00;;
23470;SDS011;11908;50.806;4.424;2023-05-10T08:42:12;6.50;;;4.10;;
23470;SDS011;11908;50.806;4.424;2023-05-10T08:44:44;4.90;;;3.85;;
23470;SDS011;11908;50.806;4.424;2023-05-10T08:47:13;5.65;;;4.30;;
23470;SDS011;11908;50.806;4.424;2023-05-10T08:49:43;7.50;;;4.00;;
23470;SDS011;11908;50.806;4.424;2023-05-10T08:52:13;5.70;;;4.32;;
23470;SDS011;11908;50.806;4.424;2023-05-10T08:54:41;6.13;;;4.55;;
23470;SDS011;11908;50.806;4.424;2023-05-10T08:57:07;6.55;;;4.47;;
23470;SDS011;11908;50.806;4.424;2023-05-10T08:59:33;8.27;;;3.75;;
23470;SDS011;11908;50.806;4.424;2023-05-10T09:01:59;7.45;;;4.03;;
23470;SDS011;11908;50.806;4.424;2023-05-10T09:04:25;6.90;;;4.30;;
23470;SDS011;11908;50.806;4.424;2023-05-10T09:06:51;5.50;;;3.90;;
23470;SDS011;11908;50.806;4.424;2023-05-10T09:09:17;4.68;;;3.90;;
23470;SDS011;11908;50.806;4.424;2023-05-10T09:11:44;7.95;;;4.30;;
23470;SDS011;11908;50.806;4.424;2023-05-10T09:14:11;5.93;;;4.32;;
23470;SDS011;11908;50.806;4.424;2023-05-10T09:16:38;7.68;;;4.85;;
23470;SDS011;11908;50.806;4.424;2023-05-10T09:19:04;9.30;;;4.63;;
23470;SDS011;11908;50.806;4.424;2023-05-10T09:21:31;8.57;;;4.88;;
23470;SDS011;11908;50.806;4.424;2023-05-10T09:24:02;10.23;;;4.13;;
23470;SDS011;11908;50.806;4.424;2023-05-10T09:26:29;13.70;;;5.68;;
23470;SDS011;11908;50.806;4.424;2023-05-10T09:28:55;7.80;;;4.57;;
23470;SDS011;11908;50.806;4.424;2023-05-10T09:31:22;5.53;;;4.47;;
23470;SDS011;11908;50.806;4.424;2023-05-10T09:33:50;6.18;;;4.47;;
23470;SDS011;11908;50.806;4.424;2023-05-10T09:36:16;6.22;;;4.40;;
23470;SDS011;11908;50.806;4.424;2023-05-10T09:38:48;6.25;;;5.03;;
23470;SDS011;11908;50.806;4.424;2023-05-10T09:41:17;7.85;;;4.88;;
23470;SDS011;11908;50.806;4.424;2023-05-10T09:43:50;6.82;;;3.35;;
23470;SDS011;11908;50.806;4.424;2023-05-10T09:46:20;4.90;;;3.50;;
23470;SDS011;11908;50.806;4.424;2023-05-10T09:48:46;7.13;;;3.92;;
23470;SDS011;11908;50.806;4.424;2023-05-10T09:51:19;4.20;;;3.42;;
23470;SDS011;11908;50.806;4.424;2023-05-10T09:53:45;9.18;;;3.90;;
23470;SDS011;11908;50.806;4.424;2023-05-10T09:56:11;6.47;;;3.08;;
23470;SDS011;11908;50.806;4.424;2023-05-10T09:58:37;3.15;;;2.85;;
23470;SDS011;11908;50.806;4.424;2023-05-10T10:01:10;4.20;;;2.70;;
23470;SDS011;11908;50.806;4.424;2023-05-10T10:03:41;3.45;;;2.30;;
23470;SDS011;11908;50.806;4.424;2023-05-10T10:06:08;4.28;;;2.28;;
23470;SDS011;11908;50.806;4.424;2023-05-10T10:08:34;2.50;;;2.30;;
23470;SDS011;11908;50.806;4.424;2023-05-10T10:11:00;2.38;;;2.03;;
23470;SDS011;11908;50.806;4.424;2023-05-10T10:13:26;2.40;;;2.03;;
23470;SDS011;11908;50.806;4.424;2023-05-10T10:15:52;2.25;;;2.05;;
23470;SDS011;11908;50.806;4.424;2023-05-10T10:18:19;2.13;;;1.92;;
23470;SDS011;11908;50.806;4.424;2023-05-10T10:20:48;2.95;;;1.60;;
23470;SDS011;11908;50.806;4.424;2023-05-10T10:23:14;2.03;;;1.88;;
23470;SDS011;11908;50.806;4.424;2023-05-10T10:25:40;2.47;;;1.85;;
23470;SDS011;11908;50.806;4.424;2023-05-10T10:28:24;2.03;;;1.88;;
23470;SDS011;11908;50.806;4.424;2023-05-10T10:31:02;2.92;;;1.65;;
23470;SDS011;11908;50.806;4.424;2023-05-10T10:34:08;2.28;;;1.92;;
23470;SDS011;11908;50.806;4.424;2023-05-10T10:36:47;3.78;;;1.83;;
23470;SDS011;11908;50.806;4.424;2023-05-10T10:39:13;2.55;;;1.88;;
23470;SDS011;11908;50.806;4.424;2023-05-10T10:41:49;1.65;;;1.55;;
23470;SDS011;11908;50.806;4.424;2023-05-10T10:49:48;8.63;;;2.17;;
23470;SDS011;11908;50.806;4.424;2023-05-10T10:55:13;2.40;;;2.00;;
23470;SDS011;11908;50.806;4.424;2023-05-10T10:57:43;2.75;;;2.00;;
23470;SDS011;11908;50.806;4.424;2023-05-10T11:02:47;2.25;;;1.83;;
23470;SDS011;11908;50.806;4.424;2023-05-10T11:08:06;2.53;;;2.33;;
23470;SDS011;11908;50.806;4.424;2023-05-10T11:10:33;2.25;;;1.88;;
23470;SDS011;11908;50.806;4.424;2023-05-10T11:13:00;3.67;;;2.28;;
23470;SDS011;11908;50.806;4.424;2023-05-10T11:15:31;2.90;;;2.30;;
23470;SDS011;11908;50.806;4.424;2023-05-10T11:20:52;2.80;;;2.50;;
23470;SDS011;11908;50.806;4.424;2023-05-10T11:23:21;3.00;;;2.42;;
23470;SDS011;11908;50.806;4.424;2023-05-10T11:25:47;4.45;;;2.58;;
23470;SDS011;11908;50.806;4.424;2023-05-10T11:28:16;3.63;;;2.80;;
23470;SDS011;11908;50.806;4.424;2023-05-10T11:30:43;3.35;;;2.47;;
23470;SDS011;11908;50.806;4.424;2023-05-10T11:33:09;2.85;;;2.35;;
23470;SDS011;11908;50.806;4.424;2023-05-10T11:35:41;2.20;;;2.00;;
23470;SDS011;11908;50.806;4.424;2023-05-10T11:38:10;2.78;;;2.30;;
23470;SDS011;11908;50.806;4.424;2023-05-10T11:40:37;2.67;;;2.28;;
23470;SDS011;11908;50.806;4.424;2023-05-10T11:43:03;4.63;;;2.50;;
23470;SDS011;11908;50.806;4.424;2023-05-10T11:45:33;2.67;;;2.30;;
23470;SDS011;11908;50.806;4.424;2023-05-10T11:47:59;3.25;;;2.28;;
23470;SDS011;11908;50.806;4.424;2023-05-10T11:50:25;2.33;;;1.92;;
23470;SDS011;11908;50.806;4.424;2023-05-10T11:52:51;3.60;;;2.03;;
23470;SDS011;11908;50.806;4.424;2023-05-10T11:55:17;2.00;;;1.75;;
23470;SDS011;11908;50.806;4.424;2023-05-10T11:57:43;2.58;;;2.03;;
23470;SDS011;11908;50.806;4.424;2023-05-10T12:00:11;4.47;;;2.13;;
23470;SDS011;11908;50.806;4.424;2023-05-10T12:02:37;2.03;;;1.85;;
23470;SDS011;11908;50.806;4.424;2023-05-10T12:05:04;6.20;;;2.20;;
23470;SDS011;11908;50.806;4.424;2023-05-10T12:07:30;3.63;;;2.15;;
23470;SDS011;11908;50.806;4.424;2023-05-10T12:10:06;2.58;;;1.85;;
23470;SDS011;11908;50.806;4.424;2023-05-10T12:12:40;3.13;;;2.35;;
23470;SDS011;11908;50.806;4.424;2023-05-10T12:15:10;2.33;;;1.98;;
23470;SDS011;11908;50.806;4.424;2023-05-10T12:17:37;3.13;;;1.90;;
23470;SDS011;11908;50.806;4.424;2023-05-10T12:20:18;4.00;;;2.13;;
23470;SDS011;11908;50.806;4.424;2023-05-10T12:22:52;3.72;;;1.90;;
23470;SDS011;11908;50.806;4.424;2023-05-10T12:27:52;3.67;;;1.80;;
23470;SDS011;11908;50.806;4.424;2023-05-10T12:30:23;3.67;;;1.98;;
23470;SDS011;11908;50.806;4.424;2023-05-10T12:32:50;3.60;;;2.22;;
23470;SDS011;11908;50.806;4.424;2023-05-10T12:35:16;2.22;;;2.03;;
23470;SDS011;11908;50.806;4.424;2023-05-10T12:37:46;4.38;;;2.42;;
23470;SDS011;11908;50.806;4.424;2023-05-10T12:40:11;5.47;;;2.30;;
23470;SDS011;11908;50.806;4.424;2023-05-10T12:42:38;2.58;;;2.05;;
23470;SDS011;11908;50.806;4.424;2023-05-10T12:45:04;3.30;;;2.20;;
23470;SDS011;11908;50.806;4.424;2023-05-10T12:47:31;2.70;;;2.28;;
23470;SDS011;11908;50.806;4.424;2023-05-10T12:49:57;2.15;;;1.90;;
23470;SDS011;11908;50.806;4.424;2023-05-10T12:52:24;2.80;;;1.90;;
23470;SDS011;11908;50.806;4.424;2023-05-10T12:54:51;2.17;;;2.00;;
23470;SDS011;11908;50.806;4.424;2023-05-10T12:57:17;2.30;;;2.10;;
23470;SDS011;11908;50.806;4.424;2023-05-10T12:59:43;2.65;;;2.45;;
23470;SDS011;11908;50.806;4.424;2023-05-10T13:02:09;6.30;;;3.15;;
23470;SDS011;11908;50.806;4.424;2023-05-10T13:04:35;4.03;;;3.10;;
23470;SDS011;11908;50.806;4.424;2023-05-10T13:07:04;5.40;;;2.80;;
23470;SDS011;11908;50.806;4.424;2023-05-10T13:09:32;3.67;;;2.58;;
23470;SDS011;11908;50.806;4.424;2023-05-10T13:11:58;3.35;;;3.05;;
23470;SDS011;11908;50.806;4.424;2023-05-10T13:14:24;3.58;;;2.97;;
23470;SDS011;11908;50.806;4.424;2023-05-10T13:16:50;3.47;;;2.70;;
23470;SDS011;11908;50.806;4.424;2023-05-10T13:19:16;3.42;;;2.95;;
23470;SDS011;11908;50.806;4.424;2023-05-10T13:21:42;5.25;;;3.08;;
23470;SDS011;11908;50.806;4.424;2023-05-10T13:24:09;7.40;;;3.22;;
23470;SDS011;11908;50.806;4.424;2023-05-10T13:26:35;4.63;;;3.30;;
23470;SDS011;11908;50.806;4.424;2023-05-10T13:29:02;5.10;;;2.97;;
23470;SDS011;11908;50.806;4.424;2023-05-10T13:31:28;3.90;;;2.95;;
23470;SDS011;11908;50.806;4.424;2023-05-10T13:33:54;4.78;;;3.13;;
23470;SDS011;11908;50.806;4.424;2023-05-10T13:36:20;4.35;;;2.95;;
23470;SDS011;11908;50.806;4.424;2023-05-10T13:38:46;4.90;;;3.17;;
23470;SDS011;11908;50.806;4.424;2023-05-10T13:41:11;4.00;;;2.63;;
23470;SDS011;11908;50.806;4.424;2023-05-10T13:43:37;5.82;;;2.55;;
23470;SDS011;11908;50.806;4.424;2023-05-10T13:46:02;6.65;;;2.83;;
23470;SDS011;11908;50.806;4.424;2023-05-10T13:48:28;4.28;;;2.58;;
23470;SDS011;11908;50.806;4.424;2023-05-10T13:50:54;5.05;;;2.67;;
23470;SDS011;11908;50.806;4.424;2023-05-10T13:53:19;5.47;;;3.83;;
23470;SDS011;11908;50.806;4.424;2023-05-10T13:55:46;5.22;;;4.05;;
23470;SDS011;11908;50.806;4.424;2023-05-10T13:58:12;5.75;;;4.03;;
23470;SDS011;11908;50.806;4.424;2023-05-10T14:00:38;6.30;;;4.25;;
23470;SDS011;11908;50.806;4.424;2023-05-10T14:03:04;9.80;;;4.85;;
23470;SDS011;11908;50.806;4.424;2023-05-10T14:05:31;6.05;;;4.05;;
23470;SDS011;11908;50.806;4.424;2023-05-10T14:07:56;9.95;;;5.35;;
23470;SDS011;11908;50.806;4.424;2023-05-10T14:10:22;6.53;;;4.50;;
23470;SDS011;11908;50.806;4.424;2023-05-10T14:12:48;8.52;;;4.97;;
23470;SDS011;11908;50.806;4.424;2023-05-10T14:15:15;8.57;;;5.55;;
23470;SDS011;11908;50.806;4.424;2023-05-10T14:17:40;7.88;;;5.72;;
23470;SDS011;11908;50.806;4.424;2023-05-10T14:20:06;10.35;;;5.97;;
23470;SDS011;11908;50.806;4.424;2023-05-10T14:22:32;9.88;;;6.13;;
23470;SDS011;11908;50.806;4.424;2023-05-10T14:24:58;7.65;;;6.07;;
23470;SDS011;11908;50.806;4.424;2023-05-10T14:27:23;11.38;;;6.65;;
23470;SDS011;11908;50.806;4.424;2023-05-10T14:29:50;7.80;;;6.80;;
23470;SDS011;11908;50.806;4.424;2023-05-10T14:32:15;10.00;;;6.85;;
23470;SDS011;11908;50.806;4.424;2023-05-10T14:34:41;6.72;;;6.03;;
23470;SDS011;11908;50.806;4.424;2023-05-10T14:37:07;11.23;;;7.18;;
23470;SDS011;11908;50.806;4.424;2023-05-10T14:39:34;10.43;;;6.68;;
23470;SDS011;11908;50.806;4.424;2023-05-10T14:42:00;15.20;;;7.82;;
23470;SDS011;11908;50.806;4.424;2023-05-10T14:44:27;11.43;;;8.88;;
23470;SDS011;11908;50.806;4.424;2023-05-10T14:46:53;11.82;;;9.13;;
23470;SDS011;11908;50.806;4.424;2023-05-10T14:49:19;14.48;;;9.07;;
23470;SDS011;11908;50.806;4.424;2023-05-10T14:51:47;13.25;;;8.77;;
23470;SDS011;11908;50.806;4.424;2023-05-10T14:54:13;10.45;;;8.38;;
23470;SDS011;11908;50.806;4.424;2023-05-10T14:56:39;10.43;;;8.30;;
23470;SDS011;11908;50.806;4.424;2023-05-10T14:59:06;9.48;;;7.90;;
23470;SDS011;11908;50.806;4.424;2023-05-10T15:01:32;10.88;;;8.95;;
23470;SDS011;11908;50.806;4.424;2023-05-10T15:03:59;14.35;;;10.27;;
23470;SDS011;11908;50.806;4.424;2023-05-10T15:06:34;14.57;;;10.85;;
23470;SDS011;11908;50.806;4.424;2023-05-10T15:09:01;14.30;;;9.60;;
23470;SDS011;11908;50.806;4.424;2023-05-10T15:11:28;14.52;;;9.73;;
23470;SDS011;11908;50.806;4.424;2023-05-10T15:13:54;13.88;;;9.30;;